Accueil
METAR-TAF:

METAR-TAF

Aéroports :

Buochs, Suisse

latitude: 46-58-28N, longitude: 8-23-49E, altitude: 449 m

Observation

Le bulletin a été fait il y a 30 minutes, à 08:20 UTC
Vent 4 kt de est/nord-est
Température 19°C
Humidité 68%
Pression 1021 hPa
Visibilité 10 km ou plus
Quelques nuages à une hauteur de 5000 ft

METAR: LSZC 230820Z 06004KT 9999 FEW050 19/13 Q1021

Heure: 10:50 (08:50 UTC)

Prévision

Le bulletin a été fait il y a 25 minutes, à 08:25 UTC
Prévision valable du 23 à 09 UTC au 23 à 18 UTC
Vent 5 kt de est/nord-est
Visibilité 10 km ou plus
Nuages épars à une hauteur de 15000 ft
Probabilité 40% :
Temporairement
du 23 à 14 UTC au 23 à 18 UTC
Quelques nuages à une hauteur de 6000 ft, Cumulus congestus.

TAF: LSZC 230825Z 2309/2318 06005KT 9999 SCT150 PROB40 TEMPO 2314/2318 FEW060TCU

Observations et prévisions météorologiques de plus de 4000 aéroports (messages METAR et TAF).

Les stations disponibles sont représentées par des disques jaunes et rouges sur la carte.

Passer la souris dessus pour voir le nom de la station.

Cliquer dessus pour voir les observations et prévisions météorologiques.

Pour changer de carte: cliquez sur les boutons verts avec une croix noire pour zoomer, sur le bouton vert avec un tiret pour effectuer un zoom arrière, ou sur les flèches vertes pour les cartes adjacentes.


METAR-TAF: